sensor_id;sensor_type;location;lat;lon;timestamp;P1;durP1;ratioP1;P2;durP2;ratioP2
34920;SDS011;21128;50.016;20.002;2023-03-16T00:00:04;45.60;;;18.90;;
34920;SDS011;21128;50.016;20.002;2023-03-16T00:02:55;44.63;;;18.87;;
34920;SDS011;21128;50.016;20.002;2023-03-16T00:05:22;39.70;;;17.67;;
34920;SDS011;21128;50.016;20.002;2023-03-16T00:07:51;36.17;;;17.37;;
34920;SDS011;21128;50.016;20.002;2023-03-16T00:10:19;38.80;;;17.70;;
34920;SDS011;21128;50.016;20.002;2023-03-16T00:12:53;42.50;;;16.60;;
34920;SDS011;21128;50.016;20.002;2023-03-16T00:15:21;34.93;;;16.87;;
34920;SDS011;21128;50.016;20.002;2023-03-16T00:17:48;48.33;;;18.03;;
34920;SDS011;21128;50.016;20.002;2023-03-16T00:20:16;41.10;;;16.32;;
34920;SDS011;21128;50.016;20.002;2023-03-16T00:22:44;39.37;;;17.83;;
34920;SDS011;21128;50.016;20.002;2023-03-16T00:25:11;42.77;;;17.10;;
34920;SDS011;21128;50.016;20.002;2023-03-16T00:27:40;50.00;;;17.83;;
34920;SDS011;21128;50.016;20.002;2023-03-16T00:30:07;47.57;;;17.43;;
34920;SDS011;21128;50.016;20.002;2023-03-16T00:32:36;39.97;;;17.53;;
34920;SDS011;21128;50.016;20.002;2023-03-16T00:35:04;37.03;;;17.97;;
34920;SDS011;21128;50.016;20.002;2023-03-16T00:37:32;40.30;;;16.90;;
34920;SDS011;21128;50.016;20.002;2023-03-16T00:39:59;39.97;;;17.07;;
34920;SDS011;21128;50.016;20.002;2023-03-16T00:42:28;42.80;;;17.60;;
34920;SDS011;21128;50.016;20.002;2023-03-16T00:44:56;44.07;;;17.17;;
34920;SDS011;21128;50.016;20.002;2023-03-16T00:47:28;40.30;;;17.70;;
34920;SDS011;21128;50.016;20.002;2023-03-16T00:49:58;40.40;;;17.07;;
34920;SDS011;21128;50.016;20.002;2023-03-16T00:52:27;40.17;;;17.20;;
34920;SDS011;21128;50.016;20.002;2023-03-16T00:54:55;41.70;;;17.37;;
34920;SDS011;21128;50.016;20.002;2023-03-16T00:57:23;43.23;;;16.50;;
34920;SDS011;21128;50.016;20.002;2023-03-16T00:59:53;40.10;;;16.83;;
34920;SDS011;21128;50.016;20.002;2023-03-16T01:02:20;38.07;;;14.93;;
34920;SDS011;21128;50.016;20.002;2023-03-16T01:04:51;38.43;;;17.40;;
34920;SDS011;21128;50.016;20.002;2023-03-16T01:07:20;39.13;;;15.93;;
34920;SDS011;21128;50.016;20.002;2023-03-16T01:09:47;40.43;;;16.53;;
34920;SDS011;21128;50.016;20.002;2023-03-16T01:12:15;44.03;;;17.40;;
34920;SDS011;21128;50.016;20.002;2023-03-16T01:14:45;41.37;;;16.73;;
34920;SDS011;21128;50.016;20.002;2023-03-16T01:17:13;36.40;;;16.30;;
34920;SDS011;21128;50.016;20.002;2023-03-16T01:19:43;40.10;;;16.87;;
34920;SDS011;21128;50.016;20.002;2023-03-16T01:22:11;35.47;;;14.53;;
34920;SDS011;21128;50.016;20.002;2023-03-16T01:24:39;39.43;;;15.67;;
34920;SDS011;21128;50.016;20.002;2023-03-16T01:27:07;35.20;;;14.53;;
34920;SDS011;21128;50.016;20.002;2023-03-16T01:29:35;37.47;;;15.97;;
34920;SDS011;21128;50.016;20.002;2023-03-16T01:32:03;39.83;;;15.00;;
34920;SDS011;21128;50.016;20.002;2023-03-16T01:34:31;33.30;;;14.50;;
34920;SDS011;21128;50.016;20.002;2023-03-16T01:37:00;29.03;;;14.40;;
34920;SDS011;21128;50.016;20.002;2023-03-16T01:39:27;33.37;;;14.67;;
34920;SDS011;21128;50.016;20.002;2023-03-16T01:41:54;30.87;;;14.17;;
34920;SDS011;21128;50.016;20.002;2023-03-16T01:44:23;33.37;;;13.70;;
34920;SDS011;21128;50.016;20.002;2023-03-16T01:46:56;30.37;;;14.53;;
34920;SDS011;21128;50.016;20.002;2023-03-16T01:52:07;36.33;;;13.80;;
34920;SDS011;21128;50.016;20.002;2023-03-16T01:54:47;27.47;;;13.63;;
34920;SDS011;21128;50.016;20.002;2023-03-16T01:57:18;32.57;;;13.93;;
34920;SDS011;21128;50.016;20.002;2023-03-16T02:02:21;29.97;;;13.43;;
34920;SDS011;21128;50.016;20.002;2023-03-16T02:04:54;32.30;;;13.57;;
34920;SDS011;21128;50.016;20.002;2023-03-16T02:07:28;31.03;;;13.10;;
34920;SDS011;21128;50.016;20.002;2023-03-16T02:10:00;29.35;;;14.40;;
34920;SDS011;21128;50.016;20.002;2023-03-16T02:12:29;37.80;;;13.65;;
34920;SDS011;21128;50.016;20.002;2023-03-16T02:14:56;29.20;;;13.43;;
34920;SDS011;21128;50.016;20.002;2023-03-16T02:17:24;32.25;;;16.00;;
34920;SDS011;21128;50.016;20.002;2023-03-16T02:22:52;33.30;;;14.50;;
34920;SDS011;21128;50.016;20.002;2023-03-16T02:25:25;32.57;;;14.60;;
34920;SDS011;21128;50.016;20.002;2023-03-16T02:30:53;37.30;;;14.13;;
34920;SDS011;21128;50.016;20.002;2023-03-16T02:33:21;32.10;;;13.40;;
34920;SDS011;21128;50.016;20.002;2023-03-16T02:35:49;39.33;;;15.03;;
34920;SDS011;21128;50.016;20.002;2023-03-16T02:38:16;37.60;;;15.35;;
34920;SDS011;21128;50.016;20.002;2023-03-16T02:40:43;34.53;;;15.33;;
34920;SDS011;21128;50.016;20.002;2023-03-16T02:43:19;33.90;;;13.90;;
34920;SDS011;21128;50.016;20.002;2023-03-16T02:45:55;32.47;;;14.37;;
34920;SDS011;21128;50.016;20.002;2023-03-16T02:48:37;37.63;;;14.57;;
34920;SDS011;21128;50.016;20.002;2023-03-16T02:51:11;37.30;;;14.97;;
34920;SDS011;21128;50.016;20.002;2023-03-16T02:53:38;37.27;;;16.23;;
34920;SDS011;21128;50.016;20.002;2023-03-16T02:56:06;46.20;;;19.77;;
34920;SDS011;21128;50.016;20.002;2023-03-16T02:58:33;43.10;;;19.63;;
34920;SDS011;21128;50.016;20.002;2023-03-16T03:01:03;44.60;;;19.83;;
34920;SDS011;21128;50.016;20.002;2023-03-16T03:03:31;49.13;;;21.93;;
34920;SDS011;21128;50.016;20.002;2023-03-16T03:06:00;48.73;;;22.80;;
34920;SDS011;21128;50.016;20.002;2023-03-16T03:08:27;47.50;;;22.03;;
34920;SDS011;21128;50.016;20.002;2023-03-16T03:10:54;51.77;;;23.27;;
34920;SDS011;21128;50.016;20.002;2023-03-16T03:13:22;53.48;;;24.80;;
34920;SDS011;21128;50.016;20.002;2023-03-16T03:15:50;53.90;;;25.35;;
34920;SDS011;21128;50.016;20.002;2023-03-16T03:18:18;55.80;;;26.70;;
34920;SDS011;21128;50.016;20.002;2023-03-16T03:20:45;66.17;;;27.30;;
34920;SDS011;21128;50.016;20.002;2023-03-16T03:23:15;62.07;;;29.73;;
34920;SDS011;21128;50.016;20.002;2023-03-16T03:25:42;61.90;;;28.80;;
34920;SDS011;21128;50.016;20.002;2023-03-16T03:28:11;59.20;;;29.03;;
34920;SDS011;21128;50.016;20.002;2023-03-16T03:30:38;55.53;;;28.77;;
34920;SDS011;21128;50.016;20.002;2023-03-16T03:33:09;65.90;;;30.87;;
34920;SDS011;21128;50.016;20.002;2023-03-16T03:35:38;66.20;;;31.73;;
34920;SDS011;21128;50.016;20.002;2023-03-16T03:38:07;72.10;;;31.13;;
34920;SDS011;21128;50.016;20.002;2023-03-16T03:40:34;69.03;;;30.60;;
34920;SDS011;21128;50.016;20.002;2023-03-16T03:43:02;63.10;;;30.70;;
34920;SDS011;21128;50.016;20.002;2023-03-16T03:45:31;66.67;;;32.10;;
34920;SDS011;21128;50.016;20.002;2023-03-16T03:48:00;64.10;;;32.30;;
34920;SDS011;21128;50.016;20.002;2023-03-16T03:50:30;68.30;;;32.27;;
34920;SDS011;21128;50.016;20.002;2023-03-16T03:52:57;69.23;;;32.33;;
34920;SDS011;21128;50.016;20.002;2023-03-16T03:55:27;67.73;;;30.33;;
34920;SDS011;21128;50.016;20.002;2023-03-16T03:57:56;70.53;;;32.07;;
34920;SDS011;21128;50.016;20.002;2023-03-16T04:00:23;62.83;;;30.80;;
34920;SDS011;21128;50.016;20.002;2023-03-16T04:02:53;69.17;;;32.13;;
34920;SDS011;21128;50.016;20.002;2023-03-16T04:05:23;70.23;;;33.27;;
34920;SDS011;21128;50.016;20.002;2023-03-16T04:07:57;67.70;;;31.83;;
34920;SDS011;21128;50.016;20.002;2023-03-16T04:10:27;74.70;;;36.60;;
34920;SDS011;21128;50.016;20.002;2023-03-16T04:12:57;70.03;;;32.98;;
34920;SDS011;21128;50.016;20.002;2023-03-16T04:15:28;82.10;;;33.33;;
34920;SDS011;21128;50.016;20.002;2023-03-16T04:17:55;72.10;;;34.13;;
34920;SDS011;21128;50.016;20.002;2023-03-16T04:20:25;73.87;;;34.47;;
34920;SDS011;21128;50.016;20.002;2023-03-16T04:22:55;69.97;;;34.97;;
34920;SDS011;21128;50.016;20.002;2023-03-16T04:25:28;76.87;;;35.70;;
34920;SDS011;21128;50.016;20.002;2023-03-16T04:27:58;77.60;;;37.50;;
34920;SDS011;21128;50.016;20.002;2023-03-16T04:30:25;77.72;;;35.58;;
34920;SDS011;21128;50.016;20.002;2023-03-16T04:32:52;77.13;;;37.90;;
34920;SDS011;21128;50.016;20.002;2023-03-16T04:35:19;82.23;;;37.27;;
34920;SDS011;21128;50.016;20.002;2023-03-16T04:37:47;75.87;;;37.65;;
34920;SDS011;21128;50.016;20.002;2023-03-16T04:40:14;74.53;;;37.40;;
34920;SDS011;21128;50.016;20.002;2023-03-16T04:42:44;74.50;;;38.17;;
34920;SDS011;21128;50.016;20.002;2023-03-16T04:45:13;78.75;;;40.20;;
34920;SDS011;21128;50.016;20.002;2023-03-16T04:47:41;78.73;;;41.30;;
34920;SDS011;21128;50.016;20.002;2023-03-16T04:50:08;75.47;;;37.58;;
34920;SDS011;21128;50.016;20.002;2023-03-16T04:52:36;81.07;;;38.63;;
34920;SDS011;21128;50.016;20.002;2023-03-16T04:55:04;80.17;;;38.33;;
34920;SDS011;21128;50.016;20.002;2023-03-16T04:57:31;80.57;;;40.47;;
34920;SDS011;21128;50.016;20.002;2023-03-16T04:59:58;80.77;;;39.97;;
34920;SDS011;21128;50.016;20.002;2023-03-16T05:02:25;76.85;;;39.42;;
34920;SDS011;21128;50.016;20.002;2023-03-16T05:04:53;70.90;;;37.80;;
34920;SDS011;21128;50.016;20.002;2023-03-16T05:07:20;72.37;;;37.83;;
34920;SDS011;21128;50.016;20.002;2023-03-16T05:09:47;75.20;;;40.37;;
34920;SDS011;21128;50.016;20.002;2023-03-16T05:12:14;74.43;;;40.63;;
34920;SDS011;21128;50.016;20.002;2023-03-16T05:14:41;81.50;;;39.23;;
34920;SDS011;21128;50.016;20.002;2023-03-16T05:17:08;76.90;;;40.03;;
34920;SDS011;21128;50.016;20.002;2023-03-16T05:19:35;74.30;;;39.60;;
34920;SDS011;21128;50.016;20.002;2023-03-16T05:22:02;83.62;;;40.45;;
34920;SDS011;21128;50.016;20.002;2023-03-16T05:24:29;74.83;;;39.47;;
34920;SDS011;21128;50.016;20.002;2023-03-16T05:26:56;84.90;;;39.95;;
34920;SDS011;21128;50.016;20.002;2023-03-16T05:29:23;79.37;;;40.13;;
34920;SDS011;21128;50.016;20.002;2023-03-16T05:31:51;81.70;;;40.87;;
34920;SDS011;21128;50.016;20.002;2023-03-16T05:34:18;78.30;;;41.70;;
34920;SDS011;21128;50.016;20.002;2023-03-16T05:36:45;78.43;;;39.37;;
34920;SDS011;21128;50.016;20.002;2023-03-16T05:39:12;81.43;;;40.30;;
34920;SDS011;21128;50.016;20.002;2023-03-16T05:41:39;81.55;;;39.92;;
34920;SDS011;21128;50.016;20.002;2023-03-16T05:44:07;82.27;;;42.40;;
34920;SDS011;21128;50.016;20.002;2023-03-16T05:46:34;79.20;;;41.67;;
34920;SDS011;21128;50.016;20.002;2023-03-16T05:49:02;80.85;;;42.93;;
34920;SDS011;21128;50.016;20.002;2023-03-16T05:51:29;75.05;;;41.70;;
34920;SDS011;21128;50.016;20.002;2023-03-16T05:53:56;84.00;;;40.87;;
34920;SDS011;21128;50.016;20.002;2023-03-16T05:56:24;78.37;;;43.33;;
34920;SDS011;21128;50.016;20.002;2023-03-16T05:58:53;75.25;;;42.25;;
34920;SDS011;21128;50.016;20.002;2023-03-16T06:01:21;75.30;;;38.87;;
34920;SDS011;21128;50.016;20.002;2023-03-16T06:03:49;71.65;;;40.10;;
34920;SDS011;21128;50.016;20.002;2023-03-16T06:06:19;80.20;;;41.13;;
34920;SDS011;21128;50.016;20.002;2023-03-16T06:08:48;79.70;;;40.87;;
34920;SDS011;21128;50.016;20.002;2023-03-16T06:11:15;74.90;;;41.28;;
34920;SDS011;21128;50.016;20.002;2023-03-16T06:13:42;73.27;;;40.97;;
34920;SDS011;21128;50.016;20.002;2023-03-16T06:16:09;76.22;;;41.48;;
34920;SDS011;21128;50.016;20.002;2023-03-16T06:18:40;74.27;;;39.80;;
34920;SDS011;21128;50.016;20.002;2023-03-16T06:21:07;78.47;;;39.70;;
34920;SDS011;21128;50.016;20.002;2023-03-16T06:23:34;70.63;;;38.17;;
34920;SDS011;21128;50.016;20.002;2023-03-16T06:26:01;71.72;;;39.92;;
34920;SDS011;21128;50.016;20.002;2023-03-16T06:28:28;77.70;;;40.40;;
34920;SDS011;21128;50.016;20.002;2023-03-16T06:30:56;70.23;;;37.83;;
34920;SDS011;21128;50.016;20.002;2023-03-16T06:33:24;63.33;;;35.75;;
34920;SDS011;21128;50.016;20.002;2023-03-16T06:35:51;67.45;;;36.35;;
34920;SDS011;21128;50.016;20.002;2023-03-16T06:38:18;68.30;;;36.23;;
34920;SDS011;21128;50.016;20.002;2023-03-16T06:40:49;69.80;;;37.95;;
34920;SDS011;21128;50.016;20.002;2023-03-16T06:43:18;66.23;;;33.57;;
34920;SDS011;21128;50.016;20.002;2023-03-16T06:45:45;68.97;;;37.37;;
34920;SDS011;21128;50.016;20.002;2023-03-16T06:48:13;77.60;;;38.95;;
34920;SDS011;21128;50.016;20.002;2023-03-16T06:50:40;68.10;;;39.10;;
34920;SDS011;21128;50.016;20.002;2023-03-16T06:53:07;68.03;;;35.53;;
34920;SDS011;21128;50.016;20.002;2023-03-16T06:55:34;67.60;;;37.00;;
34920;SDS011;21128;50.016;20.002;2023-03-16T06:58:01;67.93;;;38.10;;
34920;SDS011;21128;50.016;20.002;2023-03-16T07:00:29;68.30;;;37.47;;
34920;SDS011;21128;50.016;20.002;2023-03-16T07:02:57;67.87;;;36.20;;
34920;SDS011;21128;50.016;20.002;2023-03-16T07:05:24;64.63;;;36.13;;
34920;SDS011;21128;50.016;20.002;2023-03-16T07:07:51;62.47;;;35.97;;
34920;SDS011;21128;50.016;20.002;2023-03-16T07:10:20;61.48;;;34.48;;
34920;SDS011;21128;50.016;20.002;2023-03-16T07:12:47;61.25;;;34.60;;
34920;SDS011;21128;50.016;20.002;2023-03-16T07:15:16;63.15;;;32.50;;
34920;SDS011;21128;50.016;20.002;2023-03-16T07:17:43;59.15;;;32.75;;
34920;SDS011;21128;50.016;20.002;2023-03-16T07:20:10;57.95;;;31.90;;
34920;SDS011;21128;50.016;20.002;2023-03-16T07:22:38;54.30;;;29.57;;
34920;SDS011;21128;50.016;20.002;2023-03-16T07:25:07;55.80;;;31.40;;
34920;SDS011;21128;50.016;20.002;2023-03-16T07:27:37;51.67;;;30.07;;
34920;SDS011;21128;50.016;20.002;2023-03-16T07:30:04;49.13;;;30.33;;
34920;SDS011;21128;50.016;20.002;2023-03-16T07:32:32;56.20;;;30.93;;
34920;SDS011;21128;50.016;20.002;2023-03-16T07:34:59;54.67;;;29.47;;
34920;SDS011;21128;50.016;20.002;2023-03-16T07:37:27;52.80;;;30.43;;
34920;SDS011;21128;50.016;20.002;2023-03-16T07:39:55;48.50;;;26.97;;
34920;SDS011;21128;50.016;20.002;2023-03-16T07:42:22;57.73;;;30.08;;
34920;SDS011;21128;50.016;20.002;2023-03-16T07:44:49;55.12;;;30.25;;
34920;SDS011;21128;50.016;20.002;2023-03-16T07:47:17;58.73;;;29.50;;
34920;SDS011;21128;50.016;20.002;2023-03-16T07:49:47;56.23;;;31.80;;
34920;SDS011;21128;50.016;20.002;2023-03-16T07:52:14;47.83;;;26.57;;
34920;SDS011;21128;50.016;20.002;2023-03-16T07:54:41;48.27;;;24.47;;
34920;SDS011;21128;50.016;20.002;2023-03-16T07:57:09;49.20;;;27.23;;
34920;SDS011;21128;50.016;20.002;2023-03-16T07:59:36;46.83;;;26.82;;
34920;SDS011;21128;50.016;20.002;2023-03-16T08:02:04;48.53;;;26.20;;
34920;SDS011;21128;50.016;20.002;2023-03-16T08:04:31;46.73;;;27.13;;
34920;SDS011;21128;50.016;20.002;2023-03-16T08:06:58;47.95;;;27.17;;
34920;SDS011;21128;50.016;20.002;2023-03-16T08:09:27;64.90;;;30.00;;
34920;SDS011;21128;50.016;20.002;2023-03-16T08:11:55;40.97;;;24.83;;
34920;SDS011;21128;50.016;20.002;2023-03-16T08:14:22;43.73;;;22.40;;
34920;SDS011;21128;50.016;20.002;2023-03-16T08:16:49;41.53;;;22.97;;
34920;SDS011;21128;50.016;20.002;2023-03-16T08:19:17;43.50;;;20.87;;
34920;SDS011;21128;50.016;20.002;2023-03-16T08:21:45;39.80;;;21.33;;
34920;SDS011;21128;50.016;20.002;2023-03-16T08:24:12;44.38;;;22.27;;
34920;SDS011;21128;50.016;20.002;2023-03-16T08:26:40;36.63;;;22.27;;
34920;SDS011;21128;50.016;20.002;2023-03-16T08:29:07;41.85;;;21.30;;
34920;SDS011;21128;50.016;20.002;2023-03-16T08:31:34;39.30;;;21.50;;
34920;SDS011;21128;50.016;20.002;2023-03-16T08:34:01;42.05;;;20.12;;
34920;SDS011;21128;50.016;20.002;2023-03-16T08:36:29;37.60;;;20.03;;
34920;SDS011;21128;50.016;20.002;2023-03-16T08:38:56;39.35;;;19.12;;
34920;SDS011;21128;50.016;20.002;2023-03-16T08:41:23;42.23;;;19.47;;
34920;SDS011;21128;50.016;20.002;2023-03-16T08:43:50;37.67;;;19.50;;
34920;SDS011;21128;50.016;20.002;2023-03-16T08:46:18;37.43;;;19.43;;
34920;SDS011;21128;50.016;20.002;2023-03-16T08:48:46;34.30;;;17.53;;
34920;SDS011;21128;50.016;20.002;2023-03-16T08:51:14;45.40;;;18.55;;
34920;SDS011;21128;50.016;20.002;2023-03-16T08:53:43;28.63;;;16.87;;
34920;SDS011;21128;50.016;20.002;2023-03-16T08:56:10;38.30;;;17.65;;
34920;SDS011;21128;50.016;20.002;2023-03-16T08:58:40;81.77;;;19.77;;
34920;SDS011;21128;50.016;20.002;2023-03-16T09:01:12;29.37;;;16.27;;
34920;SDS011;21128;50.016;20.002;2023-03-16T09:03:40;28.77;;;17.13;;
34920;SDS011;21128;50.016;20.002;2023-03-16T09:06:08;30.30;;;15.77;;
34920;SDS011;21128;50.016;20.002;2023-03-16T09:08:36;34.15;;;16.25;;
34920;SDS011;21128;50.016;20.002;2023-03-16T09:11:08;31.27;;;15.97;;
34920;SDS011;21128;50.016;20.002;2023-03-16T09:13:37;39.43;;;16.33;;
34920;SDS011;21128;50.016;20.002;2023-03-16T09:16:05;34.57;;;15.80;;
34920;SDS011;21128;50.016;20.002;2023-03-16T09:18:33;32.27;;;16.80;;
34920;SDS011;21128;50.016;20.002;2023-03-16T09:21:03;28.10;;;16.15;;
34920;SDS011;21128;50.016;20.002;2023-03-16T09:23:33;28.50;;;15.23;;
34920;SDS011;21128;50.016;20.002;2023-03-16T09:26:04;32.17;;;16.83;;
34920;SDS011;21128;50.016;20.002;2023-03-16T09:28:34;45.63;;;16.77;;
34920;SDS011;21128;50.016;20.002;2023-03-16T09:31:02;22.80;;;11.97;;
34920;SDS011;21128;50.016;20.002;2023-03-16T09:33:29;20.10;;;11.03;;
34920;SDS011;21128;50.016;20.002;2023-03-16T09:36:00;19.87;;;10.23;;
34920;SDS011;21128;50.016;20.002;2023-03-16T09:38:28;28.83;;;14.23;;
34920;SDS011;21128;50.016;20.002;2023-03-16T09:41:07;27.93;;;15.17;;
34920;SDS011;21128;50.016;20.002;2023-03-16T09:46:28;25.45;;;13.65;;
34920;SDS011;21128;50.016;20.002;2023-03-16T09:49:01;24.82;;;13.53;;
34920;SDS011;21128;50.016;20.002;2023-03-16T09:57:11;83.87;;;15.97;;
34920;SDS011;21128;50.016;20.002;2023-03-16T09:59:45;58.40;;;14.77;;
34920;SDS011;21128;50.016;20.002;2023-03-16T10:05:09;18.87;;;9.43;;
34920;SDS011;21128;50.016;20.002;2023-03-16T10:07:44;16.53;;;8.13;;
34920;SDS011;21128;50.016;20.002;2023-03-16T10:10:40;23.60;;;7.27;;
34920;SDS011;21128;50.016;20.002;2023-03-16T10:13:35;11.77;;;6.20;;
34920;SDS011;21128;50.016;20.002;2023-03-16T10:16:05;12.10;;;5.83;;
34920;SDS011;21128;50.016;20.002;2023-03-16T10:18:41;18.93;;;7.07;;
34920;SDS011;21128;50.016;20.002;2023-03-16T10:21:12;18.53;;;8.83;;
34920;SDS011;21128;50.016;20.002;2023-03-16T10:23:44;20.27;;;10.17;;
34920;SDS011;21128;50.016;20.002;2023-03-16T10:26:21;23.40;;;9.30;;
34920;SDS011;21128;50.016;20.002;2023-03-16T10:28:55;44.73;;;11.20;;
34920;SDS011;21128;50.016;20.002;2023-03-16T10:31:22;19.77;;;9.53;;
34920;SDS011;21128;50.016;20.002;2023-03-16T10:33:51;22.00;;;8.63;;
34920;SDS011;21128;50.016;20.002;2023-03-16T10:36:26;29.13;;;8.80;;
34920;SDS011;21128;50.016;20.002;2023-03-16T10:39:01;45.10;;;11.27;;
34920;SDS011;21128;50.016;20.002;2023-03-16T10:41:35;16.23;;;7.20;;
34920;SDS011;21128;50.016;20.002;2023-03-16T10:44:15;16.13;;;6.90;;
34920;SDS011;21128;50.016;20.002;2023-03-16T10:46:49;20.30;;;7.97;;
34920;SDS011;21128;50.016;20.002;2023-03-16T10:49:33;22.53;;;8.20;;
34920;SDS011;21128;50.016;20.002;2023-03-16T10:52:07;341.63;;;37.57;;
34920;SDS011;21128;50.016;20.002;2023-03-16T10:54:57;18.53;;;8.00;;
34920;SDS011;21128;50.016;20.002;2023-03-16T10:57:30;16.80;;;7.53;;
34920;SDS011;21128;50.016;20.002;2023-03-16T11:00:19;20.10;;;7.70;;
34920;SDS011;21128;50.016;20.002;2023-03-16T11:03:21;19.30;;;7.87;;
34920;SDS011;21128;50.016;20.002;2023-03-16T11:05:59;51.17;;;9.43;;
34920;SDS011;21128;50.016;20.002;2023-03-16T11:08:34;17.00;;;6.27;;
34920;SDS011;21128;50.016;20.002;2023-03-16T11:11:13;381.80;;;43.03;;
34920;SDS011;21128;50.016;20.002;2023-03-16T11:13:44;35.15;;;8.45;;
34920;SDS011;21128;50.016;20.002;2023-03-16T11:16:20;15.67;;;7.07;;
34920;SDS011;21128;50.016;20.002;2023-03-16T11:18:55;12.07;;;5.57;;
34920;SDS011;21128;50.016;20.002;2023-03-16T11:21:39;12.57;;;4.40;;
34920;SDS011;21128;50.016;20.002;2023-03-16T11:24:17;11.50;;;3.53;;
34920;SDS011;21128;50.016;20.002;2023-03-16T11:26:53;14.57;;;4.20;;
34920;SDS011;21128;50.016;20.002;2023-03-16T11:32:37;10.33;;;5.40;;
34920;SDS011;21128;50.016;20.002;2023-03-16T11:35:27;13.30;;;5.57;;
34920;SDS011;21128;50.016;20.002;2023-03-16T11:38:17;12.33;;;5.93;;
34920;SDS011;21128;50.016;20.002;2023-03-16T12:02:57;13.50;;;7.40;;
34920;SDS011;21128;50.016;20.002;2023-03-16T12:10:58;20.67;;;8.90;;
34920;SDS011;21128;50.016;20.002;2023-03-16T12:16:12;22.50;;;9.20;;
34920;SDS011;21128;50.016;20.002;2023-03-16T12:24:25;19.65;;;7.50;;
34920;SDS011;21128;50.016;20.002;2023-03-16T12:26:54;15.93;;;6.73;;
34920;SDS011;21128;50.016;20.002;2023-03-16T12:35:12;15.67;;;7.47;;
34920;SDS011;21128;50.016;20.002;2023-03-16T12:38:16;14.50;;;7.67;;
34920;SDS011;21128;50.016;20.002;2023-03-16T12:48:32;10.03;;;5.30;;
34920;SDS011;21128;50.016;20.002;2023-03-16T12:51:05;9.83;;;5.10;;
34920;SDS011;21128;50.016;20.002;2023-03-16T12:53:43;13.43;;;6.12;;
34920;SDS011;21128;50.016;20.002;2023-03-16T12:56:17;11.33;;;5.73;;
34920;SDS011;21128;50.016;20.002;2023-03-16T12:58:48;13.00;;;5.45;;
34920;SDS011;21128;50.016;20.002;2023-03-16T13:01:17;8.83;;;4.70;;
34920;SDS011;21128;50.016;20.002;2023-03-16T13:03:57;14.00;;;5.30;;
34920;SDS011;21128;50.016;20.002;2023-03-16T13:06:30;11.03;;;4.17;;
34920;SDS011;21128;50.016;20.002;2023-03-16T13:09:01;10.97;;;4.70;;
34920;SDS011;21128;50.016;20.002;2023-03-16T13:11:42;9.10;;;3.87;;
34920;SDS011;21128;50.016;20.002;2023-03-16T13:14:29;8.03;;;3.53;;
34920;SDS011;21128;50.016;20.002;2023-03-16T13:19:44;10.85;;;4.33;;
34920;SDS011;21128;50.016;20.002;2023-03-16T13:22:43;14.93;;;5.00;;
34920;SDS011;21128;50.016;20.002;2023-03-16T13:25:15;11.70;;;5.60;;
34920;SDS011;21128;50.016;20.002;2023-03-16T13:27:58;17.03;;;5.53;;
34920;SDS011;21128;50.016;20.002;2023-03-16T13:30:29;15.63;;;5.90;;
34920;SDS011;21128;50.016;20.002;2023-03-16T13:33:23;13.20;;;5.65;;
34920;SDS011;21128;50.016;20.002;2023-03-16T13:35:53;11.63;;;5.57;;
34920;SDS011;21128;50.016;20.002;2023-03-16T13:38:24;12.20;;;5.30;;
34920;SDS011;21128;50.016;20.002;2023-03-16T13:41:17;16.53;;;5.67;;
34920;SDS011;21128;50.016;20.002;2023-03-16T13:43:43;9.07;;;4.17;;
34920;SDS011;21128;50.016;20.002;2023-03-16T13:46:17;12.30;;;4.75;;
34920;SDS011;21128;50.016;20.002;2023-03-16T13:48:47;10.90;;;4.53;;
34920;SDS011;21128;50.016;20.002;2023-03-16T13:51:19;9.87;;;4.50;;
34920;SDS011;21128;50.016;20.002;2023-03-16T13:53:48;9.55;;;4.22;;
34920;SDS011;21128;50.016;20.002;2023-03-16T13:56:17;7.73;;;4.33;;
34920;SDS011;21128;50.016;20.002;2023-03-16T14:03:48;8.57;;;4.47;;
34920;SDS011;21128;50.016;20.002;2023-03-16T14:06:20;8.83;;;3.07;;
34920;SDS011;21128;50.016;20.002;2023-03-16T14:08:51;12.47;;;3.47;;
34920;SDS011;21128;50.016;20.002;2023-03-16T14:13:55;11.10;;;3.40;;
34920;SDS011;21128;50.016;20.002;2023-03-16T14:16:24;8.30;;;3.17;;
34920;SDS011;21128;50.016;20.002;2023-03-16T14:18:59;8.20;;;2.93;;
34920;SDS011;21128;50.016;20.002;2023-03-16T14:21:29;7.17;;;3.17;;
34920;SDS011;21128;50.016;20.002;2023-03-16T14:24:00;6.50;;;3.07;;
34920;SDS011;21128;50.016;20.002;2023-03-16T14:26:40;11.50;;;3.23;;
34920;SDS011;21128;50.016;20.002;2023-03-16T14:32:22;5.23;;;2.77;;
34920;SDS011;21128;50.016;20.002;2023-03-16T14:37:41;10.97;;;3.03;;
34920;SDS011;21128;50.016;20.002;2023-03-16T14:40:23;10.03;;;3.80;;
34920;SDS011;21128;50.016;20.002;2023-03-16T14:45:21;8.37;;;3.17;;
34920;SDS011;21128;50.016;20.002;2023-03-16T14:47:49;8.70;;;3.20;;
34920;SDS011;21128;50.016;20.002;2023-03-16T14:50:22;7.10;;;3.30;;
34920;SDS011;21128;50.016;20.002;2023-03-16T14:52:53;10.50;;;3.53;;
34920;SDS011;21128;50.016;20.002;2023-03-16T14:55:22;11.30;;;3.77;;
34920;SDS011;21128;50.016;20.002;2023-03-16T14:57:50;11.07;;;3.50;;
34920;SDS011;21128;50.016;20.002;2023-03-16T15:00:19;6.60;;;3.67;;
34920;SDS011;21128;50.016;20.002;2023-03-16T15:02:58;26.63;;;6.07;;
34920;SDS011;21128;50.016;20.002;2023-03-16T15:05:29;314.25;;;32.80;;
34920;SDS011;21128;50.016;20.002;2023-03-16T15:08:06;16.65;;;4.60;;
34920;SDS011;21128;50.016;20.002;2023-03-16T15:10:44;6.13;;;3.50;;
34920;SDS011;21128;50.016;20.002;2023-03-16T15:13:19;8.50;;;3.97;;
34920;SDS011;21128;50.016;20.002;2023-03-16T15:16:11;11.10;;;4.03;;
34920;SDS011;21128;50.016;20.002;2023-03-16T15:18:39;11.80;;;4.30;;
34920;SDS011;21128;50.016;20.002;2023-03-16T15:21:17;9.20;;;4.40;;
34920;SDS011;21128;50.016;20.002;2023-03-16T15:23:47;10.50;;;4.35;;
34920;SDS011;21128;50.016;20.002;2023-03-16T15:26:16;67.83;;;9.27;;
34920;SDS011;21128;50.016;20.002;2023-03-16T15:28:46;59.20;;;8.23;;
34920;SDS011;21128;50.016;20.002;2023-03-16T15:31:14;18.37;;;5.12;;
34920;SDS011;21128;50.016;20.002;2023-03-16T15:33:41;15.43;;;5.00;;
34920;SDS011;21128;50.016;20.002;2023-03-16T15:36:15;14.10;;;3.77;;
34920;SDS011;21128;50.016;20.002;2023-03-16T15:38:45;8.60;;;3.43;;
34920;SDS011;21128;50.016;20.002;2023-03-16T15:41:14;7.75;;;3.50;;
34920;SDS011;21128;50.016;20.002;2023-03-16T15:43:41;8.85;;;3.35;;
34920;SDS011;21128;50.016;20.002;2023-03-16T15:46:11;6.83;;;3.37;;
34920;SDS011;21128;50.016;20.002;2023-03-16T15:48:39;8.93;;;3.77;;
34920;SDS011;21128;50.016;20.002;2023-03-16T15:51:07;7.83;;;3.53;;
34920;SDS011;21128;50.016;20.002;2023-03-16T15:53:54;10.63;;;3.30;;
34920;SDS011;21128;50.016;20.002;2023-03-16T15:56:25;11.37;;;3.40;;
34920;SDS011;21128;50.016;20.002;2023-03-16T15:58:56;11.07;;;4.00;;
34920;SDS011;21128;50.016;20.002;2023-03-16T16:01:30;9.83;;;3.10;;
34920;SDS011;21128;50.016;20.002;2023-03-16T16:04:05;11.33;;;3.90;;
34920;SDS011;21128;50.016;20.002;2023-03-16T16:06:37;10.43;;;3.33;;